createdAt,value
2019-02-10T00:00:42.579Z,98567.73
2019-02-10T00:03:11.609Z,98545.90
2019-02-10T00:05:41.123Z,98545.90
2019-02-10T00:08:11.005Z,98559.04
2019-02-10T00:10:41.336Z,98548.93
2019-02-10T00:13:35.323Z,98543.28
2019-02-10T00:16:22.335Z,98541.22
2019-02-10T00:18:52.122Z,98537.37
2019-02-10T00:21:22.009Z,98536.00
2019-02-10T00:23:51.688Z,98533.09
2019-02-10T00:26:20.699Z,98529.16
2019-02-10T00:28:50.646Z,98529.16
2019-02-10T00:31:19.647Z,98517.78
2019-02-10T00:33:48.532Z,98523.67
2019-02-10T00:36:18.314Z,98500.34
2019-02-10T00:38:48.152Z,98500.34
2019-02-10T00:41:17.822Z,98513.58
2019-02-10T00:43:47.646Z,98498.33
2019-02-10T00:46:17.464Z,98485.28
2019-02-10T00:48:47.440Z,98488.75
2019-02-10T00:51:17.665Z,98488.75
2019-02-10T00:53:46.763Z,98487.12
2019-02-10T00:56:15.463Z,98489.95
2019-02-10T00:58:45.567Z,98499.06
2019-02-10T01:01:15.311Z,98499.06
2019-02-10T01:03:45.050Z,98497.15
2019-02-10T01:06:14.823Z,98500.66
2019-02-10T01:08:44.672Z,98487.63
2019-02-10T01:11:14.743Z,98483.81
2019-02-10T01:13:44.881Z,98474.57
2019-02-10T01:16:14.650Z,98469.97
2019-02-10T01:19:09.052Z,98471.86
2019-02-10T01:21:45.315Z,98471.86
2019-02-10T01:24:15.050Z,98473.91
2019-02-10T01:26:45.049Z,98472.30
2019-02-10T01:29:15.047Z,98468.55
2019-02-10T01:31:46.008Z,98467.16
2019-02-10T01:34:15.603Z,98459.56
2019-02-10T01:36:49.851Z,98455.84
2019-02-10T01:39:18.336Z,98452.77
2019-02-10T01:41:48.314Z,98448.42
2019-02-10T01:44:18.511Z,98446.02
2019-02-10T01:46:48.128Z,98438.25
2019-02-10T01:49:17.846Z,98431.52
2019-02-10T01:51:47.690Z,98430.13
2019-02-10T01:54:17.319Z,98427.44
2019-02-10T01:56:47.462Z,98419.95
2019-02-10T01:59:17.512Z,98415.09
2019-02-10T02:01:47.216Z,98412.34
2019-02-10T02:04:17.015Z,98403.59
2019-02-10T02:06:47.151Z,98394.48
2019-02-10T02:09:16.662Z,98387.52
2019-02-10T02:11:46.641Z,98383.95
2019-02-10T02:14:15.558Z,98378.50
2019-02-10T02:16:46.052Z,98358.72
2019-02-10T02:19:15.644Z,98358.72
2019-02-10T02:21:45.524Z,98337.61
2019-02-10T02:24:15.539Z,98328.48
2019-02-10T02:26:45.320Z,98328.48
2019-02-10T02:29:14.934Z,98327.00
2019-02-10T02:31:44.615Z,98308.55
2019-02-10T02:34:14.107Z,98302.20
2019-02-10T02:36:43.631Z,98302.20
2019-02-10T02:39:13.517Z,98301.44
2019-02-10T02:41:43.650Z,98291.14
2019-02-10T02:44:13.452Z,98291.14
2019-02-10T02:46:43.307Z,98282.70
2019-02-10T02:49:12.796Z,98282.70
2019-02-10T02:51:42.663Z,98274.91
2019-02-10T02:54:11.870Z,98282.81
2019-02-10T02:56:41.621Z,98264.78
2019-02-10T02:59:10.840Z,98258.45
2019-02-10T03:01:40.525Z,98248.23
2019-02-10T03:04:10.095Z,98244.64
2019-02-10T03:06:46.191Z,98242.01
2019-02-10T03:09:16.527Z,98237.35
2019-02-10T03:11:46.109Z,98215.14
2019-02-10T03:14:17.064Z,98215.14
2019-02-10T03:16:47.030Z,98224.00
2019-02-10T03:19:16.979Z,98213.25
2019-02-10T03:21:46.979Z,98204.82
2019-02-10T03:24:16.581Z,98198.91
2019-02-10T03:26:46.334Z,98187.02
2019-02-10T03:29:15.921Z,98187.02
2019-02-10T03:31:45.558Z,98181.07
2019-02-10T03:34:15.040Z,98173.43
2019-02-10T03:36:44.515Z,98160.16
2019-02-10T03:39:14.030Z,98167.27
2019-02-10T03:44:27.319Z,98145.25
2019-02-10T03:46:56.638Z,98135.13
2019-02-10T03:53:26.779Z,98118.83
2019-02-10T03:55:56.578Z,98102.84
2019-02-10T03:58:25.726Z,98106.00
2019-02-10T04:00:54.979Z,98084.36
2019-02-10T04:03:24.514Z,98081.72
2019-02-10T04:05:54.179Z,98074.19
2019-02-10T04:08:23.808Z,98081.67
2019-02-10T04:10:53.319Z,98071.66
2019-02-10T04:13:23.111Z,98080.62
2019-02-10T04:15:53.166Z,98083.68
2019-02-10T04:18:22.791Z,98079.25
2019-02-10T04:20:52.632Z,98085.98
2019-02-10T04:23:22.177Z,98070.63
2019-02-10T04:25:51.839Z,98070.63
2019-02-10T04:28:21.164Z,98067.17
2019-02-10T04:30:51.319Z,98058.34
2019-02-10T04:33:21.445Z,98052.09
2019-02-10T04:35:51.123Z,98041.90
2019-02-10T04:38:20.851Z,98027.07
2019-02-10T04:40:50.635Z,98021.94
2019-02-10T04:43:19.274Z,98007.25
2019-02-10T04:45:48.833Z,98013.23
2019-02-10T04:48:18.654Z,98022.77
2019-02-10T04:50:47.486Z,98014.41
2019-02-10T04:53:17.529Z,97996.20
2019-02-10T04:56:14.437Z,97989.60
2019-02-10T04:58:44.053Z,97989.60
2019-02-10T05:01:13.795Z,98006.42
2019-02-10T05:03:42.537Z,97998.02
2019-02-10T05:06:12.520Z,97994.92
2019-02-10T05:08:42.460Z,97994.92
2019-02-10T05:11:12.108Z,97986.98
2019-02-10T05:13:41.809Z,97984.88
2019-02-10T05:16:11.521Z,97969.26
2019-02-10T05:18:41.319Z,97950.23
2019-02-10T05:21:12.177Z,97950.23
2019-02-10T05:23:41.805Z,97932.30
2019-02-10T05:26:11.496Z,97939.72
2019-02-10T05:28:41.481Z,97927.98
2019-02-10T05:31:10.693Z,97934.98
2019-02-10T05:33:39.728Z,97928.71
2019-02-10T05:36:08.293Z,97929.91
2019-02-10T05:38:37.825Z,97928.53
2019-02-10T05:41:07.644Z,97924.05
2019-02-10T05:43:37.429Z,97920.17
2019-02-10T05:46:07.010Z,97920.17
2019-02-10T05:48:36.630Z,97920.08
2019-02-10T05:51:06.135Z,97900.22
2019-02-10T05:53:35.808Z,97900.22
2019-02-10T05:56:05.541Z,97898.20
2019-02-10T05:58:35.335Z,97891.06
2019-02-10T06:02:27.761Z,97895.96
2019-02-10T06:05:03.027Z,97879.34
2019-02-10T06:07:32.972Z,97883.99
2019-02-10T06:10:02.895Z,97871.25
2019-02-10T06:12:33.014Z,97863.77
2019-02-10T06:15:03.021Z,97864.22
2019-02-10T06:17:33.835Z,97851.86
2019-02-10T06:20:05.661Z,97846.98
2019-02-10T06:22:34.621Z,97844.47
2019-02-10T06:25:03.483Z,97841.04
2019-02-10T06:27:33.520Z,97834.19
2019-02-10T06:30:03.071Z,97832.50
2019-02-10T06:32:33.042Z,97831.59
2019-02-10T06:35:03.321Z,97828.70
2019-02-10T06:37:33.022Z,97831.84
2019-02-10T06:40:02.802Z,97814.84
2019-02-10T06:42:32.642Z,97818.22
2019-02-10T06:45:02.060Z,97792.00
2019-02-10T06:47:32.531Z,97792.00
2019-02-10T06:50:02.551Z,97815.19
2019-02-10T06:52:32.660Z,97815.19
2019-02-10T06:55:01.811Z,97823.02
2019-02-10T06:57:31.684Z,97845.88
2019-02-10T07:00:29.785Z,97821.89
2019-02-10T07:03:49.575Z,97821.69
2019-02-10T07:06:19.119Z,97820.38
2019-02-10T07:08:48.879Z,97820.38
2019-02-10T07:11:18.620Z,97813.06
2019-02-10T07:13:53.423Z,97802.09
2019-02-10T07:16:48.644Z,97791.02
2019-02-10T07:20:03.107Z,97791.02
2019-02-10T07:24:01.952Z,97786.89
2019-02-10T07:26:55.835Z,97780.80
2019-02-10T07:30:47.330Z,97767.48
2019-02-10T07:34:27.032Z,97757.39
2019-02-10T07:38:10.995Z,97748.57
2019-02-10T07:41:43.320Z,97736.33
2019-02-10T07:45:16.463Z,97730.66
2019-02-10T07:48:25.486Z,97727.59
2019-02-10T07:51:31.827Z,97692.93
2019-02-10T07:55:34.655Z,97692.93
2019-02-10T07:58:40.668Z,97685.81
2019-02-10T08:02:05.768Z,97668.41
2019-02-10T08:06:05.598Z,97653.84
2019-02-10T08:09:19.269Z,97641.41
2019-02-10T08:12:57.677Z,97637.13
2019-02-10T08:16:17.852Z,97627.95
2019-02-10T08:20:32.817Z,97623.73
2019-02-10T08:23:52.833Z,97622.15
2019-02-10T08:27:23.149Z,97598.02
2019-02-10T08:30:50.544Z,97590.75
2019-02-10T08:34:07.435Z,97589.56
2019-02-10T08:37:52.993Z,97560.81
2019-02-10T08:41:04.362Z,97560.81
2019-02-10T08:45:37.605Z,97565.00
2019-02-10T08:49:17.849Z,97544.27
2019-02-10T08:52:35.058Z,97544.27
2019-02-10T08:55:05.320Z,97542.61
2019-02-10T08:57:34.981Z,97538.98
2019-02-10T09:00:05.638Z,97541.45
2019-02-10T09:02:34.657Z,97527.86
2019-02-10T09:05:04.827Z,97521.48
2019-02-10T09:07:35.519Z,97523.98
2019-02-10T09:10:43.037Z,97523.70
2019-02-10T09:13:13.171Z,97520.36
2019-02-10T09:15:42.848Z,97528.17
2019-02-10T09:18:12.807Z,97514.57
2019-02-10T09:20:42.512Z,97511.52
2019-02-10T09:23:12.490Z,97491.02
2019-02-10T09:25:42.319Z,97478.00
2019-02-10T09:28:13.470Z,97478.00
2019-02-10T09:30:43.430Z,97484.60
2019-02-10T09:33:12.733Z,97466.41
2019-02-10T09:35:41.752Z,97466.41
2019-02-10T09:38:10.720Z,97459.19
2019-02-10T09:44:26.859Z,97456.52
2019-02-10T09:46:56.858Z,97453.16
2019-02-10T09:49:29.447Z,97447.26
2019-02-10T09:51:59.185Z,97433.66
2019-02-10T09:54:29.367Z,97426.16
2019-02-10T09:56:59.369Z,97411.78
2019-02-10T09:59:29.320Z,97416.46
2019-02-10T10:01:59.092Z,97414.73
2019-02-10T10:04:29.457Z,97403.64
2019-02-10T10:07:00.870Z,97384.19
2019-02-10T10:09:30.819Z,97384.19
2019-02-10T10:12:00.868Z,97393.14
2019-02-10T10:14:31.198Z,97381.17
2019-02-10T10:17:01.464Z,97374.52
2019-02-10T10:19:31.344Z,97375.33
2019-02-10T10:22:01.717Z,97375.33
2019-02-10T10:28:36.340Z,97357.87
2019-02-10T10:31:06.423Z,97348.06
2019-02-10T10:33:36.245Z,97347.24
2019-02-10T10:36:06.009Z,97337.28
2019-02-10T10:38:35.921Z,97334.05
2019-02-10T10:41:05.876Z,97334.19
2019-02-10T10:43:35.816Z,97326.55
2019-02-10T10:46:05.520Z,97323.33
2019-02-10T10:48:35.304Z,97319.36
2019-02-10T10:51:05.102Z,97316.89
2019-02-10T10:53:34.917Z,97313.98
2019-02-10T10:56:05.071Z,97314.50
2019-02-10T10:58:35.525Z,97310.58
2019-02-10T11:01:05.580Z,97290.73
2019-02-10T11:03:35.656Z,97281.97
2019-02-10T11:06:04.569Z,97281.97
2019-02-10T11:08:34.284Z,97276.55
2019-02-10T11:11:04.310Z,97264.98
2019-02-10T11:13:35.325Z,97269.52
2019-02-10T11:16:05.916Z,97270.85
2019-02-10T11:18:36.049Z,97265.23
2019-02-10T11:21:09.130Z,97256.47
2019-02-10T11:23:39.039Z,97237.52
2019-02-10T11:26:09.143Z,97237.45
2019-02-10T11:28:39.315Z,97239.38
2019-02-10T11:31:09.307Z,97233.13
2019-02-10T11:33:39.309Z,97237.26
2019-02-10T11:36:09.310Z,97210.78
2019-02-10T11:38:38.865Z,97201.07
2019-02-10T11:41:09.160Z,97199.30
2019-02-10T11:43:39.320Z,97190.92
2019-02-10T11:46:10.307Z,97185.52
2019-02-10T11:48:40.105Z,97188.02
2019-02-10T11:51:10.134Z,97190.25
2019-02-10T11:53:39.834Z,97200.70
2019-02-10T11:56:09.606Z,97190.34
2019-02-10T11:58:39.002Z,97173.13
2019-02-10T12:01:09.436Z,97169.12
2019-02-10T12:03:39.328Z,97174.80
2019-02-10T12:06:09.295Z,97175.00
2019-02-10T12:08:39.046Z,97156.91
2019-02-10T12:11:09.352Z,97168.17
2019-02-10T12:13:40.457Z,97148.81
2019-02-10T12:16:10.097Z,97145.77
2019-02-10T12:18:39.828Z,97120.62
2019-02-10T12:21:10.459Z,97129.02
2019-02-10T12:23:40.306Z,97122.02
2019-02-10T12:26:10.313Z,97122.02
2019-02-10T12:28:39.960Z,97112.60
2019-02-10T12:31:09.825Z,97119.50
2019-02-10T12:33:40.313Z,97142.77
2019-02-10T12:36:10.112Z,97116.08
2019-02-10T12:38:39.985Z,97133.14
2019-02-10T12:41:10.054Z,97125.73
2019-02-10T12:43:40.313Z,97106.56
2019-02-10T12:46:10.115Z,97105.06
2019-02-10T12:48:40.146Z,97107.81
2019-02-10T12:51:10.325Z,97119.87
2019-02-10T12:53:40.411Z,97161.30
2019-02-10T12:56:10.671Z,97145.89
2019-02-10T12:58:39.485Z,97144.98
2019-02-10T13:01:09.387Z,97155.89
2019-02-10T13:03:39.494Z,97155.89
2019-02-10T13:06:09.742Z,97160.81
2019-02-10T13:09:16.320Z,97173.29
2019-02-10T13:11:46.574Z,97194.98
2019-02-10T13:14:15.576Z,97184.64
2019-02-10T13:16:46.372Z,97189.89
2019-02-10T13:19:16.004Z,97194.18
2019-02-10T13:21:46.115Z,97199.97
2019-02-10T13:24:16.562Z,97200.97
2019-02-10T13:26:45.843Z,97210.84
2019-02-10T13:29:16.793Z,97210.84
2019-02-10T13:31:46.839Z,97195.48
2019-02-10T13:34:17.985Z,97175.54
2019-02-10T13:36:48.120Z,97163.60
2019-02-10T13:39:19.545Z,97175.42
2019-02-10T13:41:46.652Z,97168.03
2019-02-10T13:44:15.677Z,97153.64
2019-02-10T13:46:45.339Z,97144.00
2019-02-10T13:49:15.182Z,97128.74
2019-02-10T13:51:45.321Z,97130.20
2019-02-10T13:54:15.320Z,97113.61
2019-02-10T13:56:45.317Z,97114.00
2019-02-10T13:59:15.177Z,97131.47
2019-02-10T14:01:45.478Z,97130.36
2019-02-10T14:04:16.312Z,97124.16
2019-02-10T14:06:46.324Z,97117.52
2019-02-10T14:09:16.321Z,97120.86
2019-02-10T14:11:46.320Z,97114.22
2019-02-10T14:14:16.134Z,97102.48
2019-02-10T14:16:46.438Z,97105.88
2019-02-10T14:19:16.580Z,97114.79
2019-02-10T14:21:45.756Z,97099.59
2019-02-10T14:24:15.837Z,97101.90
2019-02-10T14:26:45.830Z,97089.75
2019-02-10T14:29:15.789Z,97102.31
2019-02-10T14:31:45.760Z,97107.02
2019-02-10T14:34:15.907Z,97110.34
2019-02-10T14:36:46.263Z,97092.66
2019-02-10T14:39:16.489Z,97098.20
2019-02-10T14:41:45.537Z,97107.89
2019-02-10T14:44:16.459Z,97092.19
2019-02-10T14:46:46.159Z,97092.19
2019-02-10T14:49:15.826Z,97084.98
2019-02-10T14:51:46.061Z,97089.71
2019-02-10T14:54:16.136Z,97084.17
2019-02-10T14:56:46.424Z,97079.45
2019-02-10T14:59:16.831Z,97076.41
2019-02-10T15:01:46.533Z,97070.08
2019-02-10T15:04:16.409Z,97065.14
2019-02-10T15:06:47.141Z,97065.14
2019-02-10T15:09:16.905Z,97061.81
2019-02-10T15:11:46.848Z,97065.95
2019-02-10T15:14:18.839Z,97053.52
2019-02-10T15:16:48.647Z,97054.90
2019-02-10T15:19:17.882Z,97053.52
2019-02-10T15:21:47.991Z,97041.08
2019-02-10T15:24:17.802Z,97049.94
2019-02-10T15:26:48.116Z,97055.19
2019-02-10T15:29:17.814Z,97058.48
2019-02-10T15:31:47.642Z,97067.63
2019-02-10T15:34:17.147Z,97069.02
2019-02-10T15:36:47.117Z,97082.84
2019-02-10T15:39:17.140Z,97085.59
2019-02-10T15:41:46.890Z,97089.70
2019-02-10T15:45:23.070Z,97110.98
2019-02-10T15:47:53.321Z,97110.70
2019-02-10T15:50:23.138Z,97127.80
2019-02-10T15:52:53.156Z,97140.45
2019-02-10T15:55:23.131Z,97145.95
2019-02-10T15:57:53.320Z,97136.00
2019-02-10T16:00:25.116Z,97136.30
2019-02-10T16:02:55.104Z,97152.86
2019-02-10T16:05:25.000Z,97163.07
2019-02-10T16:07:54.875Z,97163.58
2019-02-10T16:10:25.119Z,97169.14
2019-02-10T16:12:55.596Z,97161.06
2019-02-10T16:15:24.841Z,97169.05
2019-02-10T16:17:54.968Z,97177.33
2019-02-10T16:20:25.250Z,97191.68
2019-02-10T16:22:55.851Z,97203.28
2019-02-10T16:25:25.562Z,97203.28
2019-02-10T16:27:54.702Z,97219.00
2019-02-10T16:30:24.528Z,97233.10
2019-02-10T16:32:54.537Z,97244.17
2019-02-10T16:35:23.649Z,97244.17
2019-02-10T16:37:52.883Z,97241.41
2019-02-10T16:40:22.961Z,97229.23
2019-02-10T16:42:52.886Z,97234.17
2019-02-10T16:45:23.344Z,97231.85
2019-02-10T16:47:53.880Z,97237.09
2019-02-10T16:50:24.047Z,97244.25
2019-02-10T16:52:54.852Z,97240.70
2019-02-10T16:55:25.115Z,97239.48
2019-02-10T16:57:55.322Z,97250.02
2019-02-10T17:00:26.942Z,97251.66
2019-02-10T17:02:57.706Z,97255.46
2019-02-10T17:05:28.114Z,97271.73
2019-02-10T17:07:58.308Z,97263.74
2019-02-10T17:10:28.541Z,97264.61
2019-02-10T17:12:58.597Z,97257.95
2019-02-10T17:15:29.284Z,97264.50
2019-02-10T17:17:59.662Z,97258.97
2019-02-10T17:20:28.625Z,97263.34
2019-02-10T17:22:58.479Z,97287.64
2019-02-10T17:25:27.939Z,97308.60
2019-02-10T17:27:58.748Z,97298.16
2019-02-10T17:30:28.515Z,97326.22
2019-02-10T17:32:58.595Z,97344.15
2019-02-10T17:35:28.366Z,97350.03
2019-02-10T17:37:58.556Z,97350.03
2019-02-10T17:40:53.508Z,97327.59
2019-02-10T17:43:28.887Z,97327.59
2019-02-10T17:45:58.906Z,97314.78
2019-02-10T17:48:28.955Z,97340.09
2019-02-10T17:50:58.929Z,97403.82
2019-02-10T17:53:29.420Z,97436.84
2019-02-10T17:55:59.660Z,97474.48
2019-02-10T17:58:28.852Z,97474.48
2019-02-10T18:01:20.963Z,97456.53
2019-02-10T18:03:50.839Z,97446.20
2019-02-10T18:06:21.089Z,97423.34
2019-02-10T18:08:51.112Z,97415.59
2019-02-10T18:11:21.446Z,97426.48
2019-02-10T18:13:51.319Z,97447.05
2019-02-10T18:16:41.890Z,97447.05
2019-02-10T18:19:34.868Z,97457.08
2019-02-10T18:22:30.520Z,97460.42
2019-02-10T18:25:22.228Z,97473.05
2019-02-10T18:28:10.048Z,97506.13
2019-02-10T18:31:19.425Z,97526.79
2019-02-10T18:34:13.862Z,97531.72
2019-02-10T18:37:05.700Z,97535.06
2019-02-10T18:39:57.654Z,97560.02
2019-02-10T18:42:38.961Z,97570.70
2019-02-10T18:45:17.310Z,97564.93
2019-02-10T18:47:53.696Z,97546.34
2019-02-10T18:50:42.784Z,97570.63
2019-02-10T18:53:26.364Z,97568.37
2019-02-10T18:56:11.572Z,97576.66
2019-02-10T18:58:54.402Z,97584.77
2019-02-10T19:01:35.443Z,97600.73
2019-02-10T19:04:33.690Z,97610.55
2019-02-10T19:07:34.432Z,97610.55
2019-02-10T19:10:15.321Z,97636.95
2019-02-10T19:13:04.315Z,97636.95
2019-02-10T19:15:47.185Z,97642.27
2019-02-10T19:18:45.525Z,97634.02
2019-02-10T19:21:33.037Z,97626.98
2019-02-10T19:24:31.306Z,97630.63
2019-02-10T19:27:22.776Z,97650.02
2019-02-10T19:30:14.748Z,97654.59
2019-02-10T19:32:49.689Z,97672.61
2019-02-10T19:35:38.860Z,97678.17
2019-02-10T19:38:30.641Z,97681.44
2019-02-10T19:41:10.051Z,97671.61
2019-02-10T19:43:55.849Z,97673.81
2019-02-10T19:46:41.500Z,97668.14
2019-02-10T19:49:46.058Z,97663.51
2019-02-10T19:52:44.553Z,97663.51
2019-02-10T19:55:20.562Z,97658.02
2019-02-10T19:58:03.702Z,97663.45
2019-02-10T20:00:43.272Z,97667.53
2019-02-10T20:03:31.329Z,97664.03
2019-02-10T20:06:19.322Z,97667.63
2019-02-10T20:09:26.211Z,97671.34
2019-02-10T20:12:04.433Z,97665.12
2019-02-10T20:14:42.256Z,97665.33
2019-02-10T20:17:37.122Z,97661.90
2019-02-10T20:20:28.516Z,97666.70
2019-02-10T20:23:10.034Z,97666.23
2019-02-10T20:25:59.504Z,97666.23
2019-02-10T20:28:57.584Z,97670.76
2019-02-10T20:31:57.774Z,97669.98
2019-02-10T20:34:43.686Z,97662.67
2019-02-10T20:37:21.486Z,97673.74
2019-02-10T20:40:22.093Z,97671.17
2019-02-10T20:43:29.526Z,97678.44
2019-02-10T20:46:27.698Z,97693.93
2019-02-10T20:49:22.017Z,97693.93
2019-02-10T20:52:03.018Z,97716.05
2019-02-10T20:54:50.637Z,97715.84
2019-02-10T20:57:38.411Z,97697.13
2019-02-10T21:00:18.504Z,97720.20
2019-02-10T21:03:06.981Z,97720.20
2019-02-10T21:06:02.673Z,97733.59
2019-02-10T21:08:38.560Z,97743.02
2019-02-10T21:11:26.432Z,97766.46
2019-02-10T21:14:14.678Z,97783.11
2019-02-10T21:17:10.312Z,97783.11
2019-02-10T21:20:05.949Z,97773.05
2019-02-10T21:22:45.535Z,97801.40
2019-02-10T21:25:35.327Z,97797.50
2019-02-10T21:28:24.609Z,97797.50
2019-02-10T21:31:20.027Z,97806.86
2019-02-10T21:34:11.453Z,97800.43
2019-02-10T21:37:09.067Z,97798.53
2019-02-10T21:40:07.544Z,97786.58
2019-02-10T21:43:02.926Z,97807.99
2019-02-10T21:45:44.634Z,97807.99
2019-02-10T21:48:21.017Z,97821.47
2019-02-10T21:50:50.798Z,97841.85
2019-02-10T21:53:20.665Z,97857.83
2019-02-10T21:55:50.550Z,97859.94
2019-02-10T21:58:19.552Z,97860.73
2019-02-10T22:00:48.311Z,97855.44
2019-02-10T22:03:18.060Z,97848.30
2019-02-10T22:05:47.871Z,97843.04
2019-02-10T22:08:18.073Z,97856.12
2019-02-10T22:10:48.040Z,97856.26
2019-02-10T22:13:17.842Z,97849.72
2019-02-10T22:15:47.361Z,97851.41
2019-02-10T22:18:17.020Z,97857.77
2019-02-10T22:20:46.645Z,97864.63
2019-02-10T22:23:16.665Z,97875.92
2019-02-10T22:25:46.110Z,97875.41
2019-02-10T22:28:15.630Z,97882.45
2019-02-10T22:30:45.165Z,97878.23
2019-02-10T22:33:14.665Z,97878.23
2019-02-10T22:35:44.251Z,97869.86
2019-02-10T22:38:13.672Z,97869.86
2019-02-10T22:40:42.794Z,97883.91
2019-02-10T22:43:12.329Z,97878.98
2019-02-10T22:45:42.017Z,97882.52
2019-02-10T22:48:13.674Z,97878.00
2019-02-10T22:50:42.984Z,97883.83
2019-02-10T22:53:12.547Z,97887.17
2019-02-10T22:55:41.274Z,97892.52
2019-02-10T22:58:10.957Z,97900.58
2019-02-10T23:00:54.513Z,97912.27
2019-02-10T23:06:20.804Z,97908.41
2019-02-10T23:08:50.320Z,97923.18
2019-02-10T23:11:19.648Z,97932.38
2019-02-10T23:13:48.840Z,97932.47
2019-02-10T23:16:18.687Z,97938.41
2019-02-10T23:18:47.488Z,97931.41
2019-02-10T23:21:16.942Z,97940.07
2019-02-10T23:23:46.441Z,97940.07
2019-02-10T23:26:16.006Z,97949.53
2019-02-10T23:28:45.774Z,97949.22
2019-02-10T23:31:15.404Z,97952.19
2019-02-10T23:33:45.140Z,97959.70
2019-02-10T23:36:15.056Z,97956.25
2019-02-10T23:38:45.006Z,97964.62
2019-02-10T23:41:14.321Z,97963.59
2019-02-10T23:43:44.189Z,97968.63
2019-02-10T23:46:14.639Z,97965.97
2019-02-10T23:48:44.333Z,97974.96
2019-02-10T23:51:14.323Z,97974.96
2019-02-10T23:53:44.028Z,97988.32
2019-02-10T23:56:14.091Z,97987.04
2019-02-10T23:58:44.125Z,97994.86
